MSC Magnifica — 3FLO4 — position and weather

sailwx.info

Track history (hours):
 
Tides and Currents Weather Stations Pressure Air Temp Water Temp Dewpoint Dewpoint Depression Visibility Wind Speed Wind Dir Waves Ship Positions

MSC Magnifica

Last reported at 2020-Sep-27 13:59 UTC. Time now 2020-Sep-27 14:51 UTC.
Position N 44°25' E 008°55'.

Length 294 m; draft 7.8 m.

Type: Passenger vessel. MMSI: 352594000.

Date/timePositionNaut miles runAvg speedWind from/ knotsBaromVisibWave heightAir tempDewpointWater temp
2020-Sep-27 13:59N 44°25' E 008°55'0 0.0
2020-Sep-27 12:59N 44°25' E 008°55'0 0.0
2020-Sep-27 09:59N 44°25' E 008°55'0 0.0
2020-Sep-27 07:29N 44°25' E 008°55'0 0.0
2020-Sep-27 02:59N 44°25' E 008°55'0 0.0
2020-Sep-26 22:59N 44°25' E 008°55'0 0.0
2020-Sep-26 21:59N 44°25' E 008°55'0 0.0
2020-Sep-26 18:59N 44°25' E 008°55'0 0.0
2020-Sep-26 14:59N 44°25' E 008°55'0 0.0
2020-Sep-26 10:59N 44°25' E 008°55'0 0.0
2020-Sep-26 09:29N 44°25' E 008°55'0 0.0
2020-Sep-26 07:59N 44°25' E 008°55'0 0.0
2020-Sep-26 07:29N 44°25' E 008°55'0 0.0
2020-Sep-26 06:59N 44°25' E 008°55'0 0.0
2020-Sep-26 06:29N 44°25' E 008°55'0 0.0
2020-Sep-26 05:29N 44°25' E 008°55'0 0.0
2020-Sep-26 00:29N 44°25' E 008°55'0 0.0
2020-Sep-25 23:29N 44°25' E 008°55'0 0.0
2020-Sep-25 20:30N 44°25' E 008°55'0 0.0
2020-Sep-25 19:29N 44°25' E 008°55'0 0.0
2020-Sep-25 14:29N 44°25' E 008°55'0 0.0
2020-Sep-25 13:59N 44°25' E 008°55'0 0.0
2020-Sep-25 13:29N 44°25' E 008°55'0 0.0
2020-Sep-25 08:29N 44°25' E 008°55'0 0.0
2020-Sep-25 07:29N 44°25' E 008°55'0 0.0
2020-Sep-25 06:59N 44°25' E 008°55'0 0.0
2020-Sep-25 05:59N 44°25' E 008°55'0 0.0
2020-Sep-25 03:59N 44°25' E 008°55'0 0.0
2020-Sep-25 00:29N 44°25' E 008°55'0 0.0
2020-Sep-24 16:59N 44°25' E 008°55'0 0.0
2020-Sep-24 15:59N 44°25' E 008°55'0 0.0
2020-Sep-24 15:29N 44°25' E 008°55'0 0.0
2020-Sep-24 13:59N 44°25' E 008°55'0 0.0
2020-Sep-24 07:28N 44°25' E 008°55'0 0.0
2020-Sep-24 06:28N 44°25' E 008°55'0 0.0
2020-Sep-24 05:30N 44°25' E 008°55'0 0.0
2020-Sep-24 02:58N 44°25' E 008°55'0 0.0
2020-Sep-24 02:25N 44°25' E 008°55'0 0.0
2020-Sep-24 02:00N 44°25' E 008°55'0 0.0
2020-Sep-23 21:30N 44°25' E 008°55'0 0.0
2020-Sep-23 20:00N 44°25' E 008°55'0 0.0
2020-Sep-23 19:24N 44°25' E 008°55'0 0.0
2020-Sep-23 19:00N 44°25' E 008°55'0 0.0
2020-Sep-23 15:00N 44°25' E 008°55'0 0.0
2020-Sep-23 14:00N 44°25' E 008°55'0 0.0
2020-Sep-23 12:00N 44°25' E 008°55'0 0.0
2020-Sep-23 11:00N 44°25' E 008°55'0 0.0
2020-Sep-23 10:30N 44°25' E 008°55'0 0.0
2020-Sep-23 02:00N 44°25' E 008°55'0 0.0
2020-Sep-22 23:00N 44°25' E 008°55'0 0.0
2020-Sep-22 16:30N 44°25' E 008°55'1 1.9
2020-Sep-22 16:01N 44°24' E 008°56'4 7.9
2020-Sep-22 15:31N 44°20' E 008°59'22 6.4
2020-Sep-22 12:01N 43°58' E 009°00'8 8.2
2020-Sep-22 11:00N 43°50' E 009°01'8 7.7
2020-Sep-22 10:01N 43°42' E 009°01'4 8.3
2020-Sep-22 09:31N 43°38' E 009°01'13 8.4
2020-Sep-22 08:01N 43°25' E 009°03'4 8.3
2020-Sep-22 07:30N 43°21' E 009°03'4 8.4
2020-Sep-22 07:00N 43°17' E 009°04'19 7.9
2020-Sep-22 04:36N 43°01' E 008°50'35 6.2
2020-Sep-21 23:01N 43°25' E 008°15'8 8.0
2020-Sep-21 21:59N 43°32' E 008°20'4 7.9
2020-Sep-21 21:30N 43°36' E 008°22'8 8.0
2020-Sep-21 20:29N 43°42' E 008°30'24 8.0
2020-Sep-21 17:31N 44°01' E 008°49'1711.5
2020-Sep-21 16:00N 44°18' E 008°57'7 3.5
2020-Sep-21 13:58N 44°25' E 008°55'0 0.0
2020-Sep-21 10:29N 44°25' E 008°55'0 0.0
2020-Sep-21 08:29N 44°25' E 008°55'0 0.0
2020-Sep-21 07:29N 44°25' E 008°55'0 0.0
2020-Sep-21 05:26N 44°25' E 008°55'0 0.0
2020-Sep-21 01:29N 44°25' E 008°55'0 0.0
2020-Sep-21 00:29N 44°25' E 008°55'0 0.0
2020-Sep-20 23:29N 44°25' E 008°55'0 0.0
2020-Sep-20 19:29N 44°25' E 008°55'0 0.0
2020-Sep-20 18:59N 44°25' E 008°55'0 0.0
2020-Sep-20 17:59N 44°25' E 008°55'0 0.0
2020-Sep-20 17:29N 44°25' E 008°55'0 0.0
2020-Sep-20 16:59N 44°25' E 008°55'0 0.0
2020-Sep-20 16:29N 44°25' E 008°55'0 0.0
2020-Sep-20 15:59N 44°25' E 008°55'0 0.0
2020-Sep-20 14:29N 44°25' E 008°55'0 0.0
2020-Sep-20 12:29N 44°25' E 008°55'0 0.0
2020-Sep-20 11:59N 44°25' E 008°55'0 0.0
2020-Sep-20 11:29N 44°25' E 008°55'0 0.0
2020-Sep-20 10:26N 44°25' E 008°55'0 0.0
2020-Sep-20 08:29N 44°25' E 008°55'0 0.0
2020-Sep-20 06:59N 44°25' E 008°55'0 0.0
2020-Sep-20 05:59N 44°25' E 008°55'0 0.0
2020-Sep-19 23:58N 44°25' E 008°55'0 0.0
2020-Sep-19 20:29N 44°25' E 008°55'0 0.0
2020-Sep-19 18:58N 44°25' E 008°55'0 0.0
2020-Sep-19 17:28N 44°25' E 008°55'0 0.0
2020-Sep-19 16:25N 44°25' E 008°55'0 0.0
2020-Sep-19 14:00N 44°25' E 008°55'0 0.0
2020-Sep-19 10:59N 44°25' E 008°55'0 0.0
2020-Sep-19 09:59N 44°25' E 008°55'0 0.0
2020-Sep-19 07:29N 44°25' E 008°55'0 0.0
2020-Sep-19 06:57N 44°25' E 008°55'0 0.0
2020-Sep-19 04:53N 44°25' E 008°55'0 0.0
2020-Sep-19 04:26N 44°25' E 008°55'0 0.0
2020-Sep-19 02:28N 44°25' E 008°55'0 0.0
2020-Sep-19 01:28N 44°25' E 008°55'0 0.0
2020-Sep-18 23:29N 44°25' E 008°55'0 0.0
2020-Sep-18 22:29N 44°25' E 008°55'0 0.0
2020-Sep-18 19:59N 44°25' E 008°55'0 0.0
2020-Sep-18 18:58N 44°25' E 008°55'0 0.0
2020-Sep-18 17:58N 44°25' E 008°55'0 0.0
2020-Sep-18 15:00N 44°25' E 008°55'0 0.0
2020-Sep-18 13:29N 44°25' E 008°55'0 0.0
2020-Sep-18 10:26N 44°25' E 008°55'0 0.0
2020-Sep-18 07:29N 44°25' E 008°55'0 0.0
2020-Sep-18 06:59N 44°25' E 008°55'0 0.0
2020-Sep-18 04:59N 44°25' E 008°55'0 0.0
2020-Sep-18 02:59N 44°25' E 008°55'0 0.0
2020-Sep-18 01:26N 44°25' E 008°55'0 0.0
2020-Sep-18 00:59N 44°25' E 008°55'0 0.0
2020-Sep-17 19:30N 44°25' E 008°55'0 0.0
2020-Sep-17 17:00N 44°25' E 008°55'0 0.0
2020-Sep-17 15:30N 44°25' E 008°55'0 0.0
2020-Sep-17 14:30N 44°25' E 008°55'  
Track history (hours):
 
Tides and Currents Weather Stations Pressure Air Temp Water Temp Dewpoint Dewpoint Depression Visibility Wind Speed Wind Dir Waves Ship Positions

MSC Magnifica

Last reported at 2020-Sep-27 13:59 UTC. Time now 2020-Sep-27 14:51 UTC.
Position N 44°25' E 008°55'.

Length 294 m; draft 7.8 m.

Type: Passenger vessel. MMSI: 352594000.

Date/timePositionNaut miles runAvg speedWind from/ knotsBaromVisibWave heightAir tempDewpointWater temp
2020-Sep-27 13:59N 44°25' E 008°55'0 0.0
2020-Sep-27 12:59N 44°25' E 008°55'0 0.0
2020-Sep-27 09:59N 44°25' E 008°55'0 0.0
2020-Sep-27 07:29N 44°25' E 008°55'0 0.0
2020-Sep-27 02:59N 44°25' E 008°55'0 0.0
2020-Sep-26 22:59N 44°25' E 008°55'0 0.0
2020-Sep-26 21:59N 44°25' E 008°55'0 0.0
2020-Sep-26 18:59N 44°25' E 008°55'0 0.0
2020-Sep-26 14:59N 44°25' E 008°55'0 0.0
2020-Sep-26 10:59N 44°25' E 008°55'0 0.0
2020-Sep-26 09:29N 44°25' E 008°55'0 0.0
2020-Sep-26 07:59N 44°25' E 008°55'0 0.0
2020-Sep-26 07:29N 44°25' E 008°55'0 0.0
2020-Sep-26 06:59N 44°25' E 008°55'0 0.0
2020-Sep-26 06:29N 44°25' E 008°55'0 0.0
2020-Sep-26 05:29N 44°25' E 008°55'0 0.0
2020-Sep-26 00:29N 44°25' E 008°55'0 0.0
2020-Sep-25 23:29N 44°25' E 008°55'0 0.0
2020-Sep-25 20:30N 44°25' E 008°55'0 0.0
2020-Sep-25 19:29N 44°25' E 008°55'0 0.0
2020-Sep-25 14:29N 44°25' E 008°55'0 0.0
2020-Sep-25 13:59N 44°25' E 008°55'0 0.0
2020-Sep-25 13:29N 44°25' E 008°55'0 0.0
2020-Sep-25 08:29N 44°25' E 008°55'0 0.0
2020-Sep-25 07:29N 44°25' E 008°55'0 0.0
2020-Sep-25 06:59N 44°25' E 008°55'0 0.0
2020-Sep-25 05:59N 44°25' E 008°55'0 0.0
2020-Sep-25 03:59N 44°25' E 008°55'0 0.0
2020-Sep-25 00:29N 44°25' E 008°55'0 0.0
2020-Sep-24 16:59N 44°25' E 008°55'0 0.0
2020-Sep-24 15:59N 44°25' E 008°55'0 0.0
2020-Sep-24 15:29N 44°25' E 008°55'0 0.0
2020-Sep-24 13:59N 44°25' E 008°55'0 0.0
2020-Sep-24 07:28N 44°25' E 008°55'0 0.0
2020-Sep-24 06:28N 44°25' E 008°55'0 0.0
2020-Sep-24 05:30N 44°25' E 008°55'0 0.0
2020-Sep-24 02:58N 44°25' E 008°55'0 0.0
2020-Sep-24 02:25N 44°25' E 008°55'0 0.0
2020-Sep-24 02:00N 44°25' E 008°55'0 0.0
2020-Sep-23 21:30N 44°25' E 008°55'0 0.0
2020-Sep-23 20:00N 44°25' E 008°55'0 0.0
2020-Sep-23 19:24N 44°25' E 008°55'0 0.0
2020-Sep-23 19:00N 44°25' E 008°55'0 0.0
2020-Sep-23 15:00N 44°25' E 008°55'0 0.0
2020-Sep-23 14:00N 44°25' E 008°55'0 0.0
2020-Sep-23 12:00N 44°25' E 008°55'0 0.0
2020-Sep-23 11:00N 44°25' E 008°55'0 0.0
2020-Sep-23 10:30N 44°25' E 008°55'0 0.0
2020-Sep-23 02:00N 44°25' E 008°55'0 0.0
2020-Sep-22 23:00N 44°25' E 008°55'0 0.0
2020-Sep-22 16:30N 44°25' E 008°55'1 1.9
2020-Sep-22 16:01N 44°24' E 008°56'4 7.9
2020-Sep-22 15:31N 44°20' E 008°59'22 6.4
2020-Sep-22 12:01N 43°58' E 009°00'8 8.2
2020-Sep-22 11:00N 43°50' E 009°01'8 7.7
2020-Sep-22 10:01N 43°42' E 009°01'4 8.3
2020-Sep-22 09:31N 43°38' E 009°01'13 8.4
2020-Sep-22 08:01N 43°25' E 009°03'4 8.3
2020-Sep-22 07:30N 43°21' E 009°03'4 8.4
2020-Sep-22 07:00N 43°17' E 009°04'19 7.9
2020-Sep-22 04:36N 43°01' E 008°50'35 6.2
2020-Sep-21 23:01N 43°25' E 008°15'8 8.0
2020-Sep-21 21:59N 43°32' E 008°20'4 7.9
2020-Sep-21 21:30N 43°36' E 008°22'8 8.0
2020-Sep-21 20:29N 43°42' E 008°30'24 8.0
2020-Sep-21 17:31N 44°01' E 008°49'1711.5
2020-Sep-21 16:00N 44°18' E 008°57'7 3.5
2020-Sep-21 13:58N 44°25' E 008°55'0 0.0
2020-Sep-21 10:29N 44°25' E 008°55'0 0.0
2020-Sep-21 08:29N 44°25' E 008°55'0 0.0
2020-Sep-21 07:29N 44°25' E 008°55'0 0.0
2020-Sep-21 05:26N 44°25' E 008°55'0 0.0
2020-Sep-21 01:29N 44°25' E 008°55'0 0.0
2020-Sep-21 00:29N 44°25' E 008°55'0 0.0
2020-Sep-20 23:29N 44°25' E 008°55'0 0.0
2020-Sep-20 19:29N 44°25' E 008°55'0 0.0
2020-Sep-20 18:59N 44°25' E 008°55'0 0.0
2020-Sep-20 17:59N 44°25' E 008°55'0 0.0
2020-Sep-20 17:29N 44°25' E 008°55'0 0.0
2020-Sep-20 16:59N 44°25' E 008°55'0 0.0
2020-Sep-20 16:29N 44°25' E 008°55'0 0.0
2020-Sep-20 15:59N 44°25' E 008°55'0 0.0
2020-Sep-20 14:29N 44°25' E 008°55'0 0.0
2020-Sep-20 12:29N 44°25' E 008°55'0 0.0
2020-Sep-20 11:59N 44°25' E 008°55'0 0.0
2020-Sep-20 11:29N 44°25' E 008°55'0 0.0
2020-Sep-20 10:26N 44°25' E 008°55'0 0.0
2020-Sep-20 08:29N 44°25' E 008°55'0 0.0
2020-Sep-20 06:59N 44°25' E 008°55'0 0.0
2020-Sep-20 05:59N 44°25' E 008°55'0 0.0
2020-Sep-19 23:58N 44°25' E 008°55'0 0.0
2020-Sep-19 20:29N 44°25' E 008°55'0 0.0
2020-Sep-19 18:58N 44°25' E 008°55'0 0.0
2020-Sep-19 17:28N 44°25' E 008°55'0 0.0
2020-Sep-19 16:25N 44°25' E 008°55'0 0.0
2020-Sep-19 14:00N 44°25' E 008°55'0 0.0
2020-Sep-19 10:59N 44°25' E 008°55'0 0.0
2020-Sep-19 09:59N 44°25' E 008°55'0 0.0
2020-Sep-19 07:29N 44°25' E 008°55'0 0.0
2020-Sep-19 06:57N 44°25' E 008°55'0 0.0
2020-Sep-19 04:53N 44°25' E 008°55'0 0.0
2020-Sep-19 04:26N 44°25' E 008°55'0 0.0
2020-Sep-19 02:28N 44°25' E 008°55'0 0.0
2020-Sep-19 01:28N 44°25' E 008°55'0 0.0
2020-Sep-18 23:29N 44°25' E 008°55'0 0.0
2020-Sep-18 22:29N 44°25' E 008°55'0 0.0
2020-Sep-18 19:59N 44°25' E 008°55'0 0.0
2020-Sep-18 18:58N 44°25' E 008°55'0 0.0
2020-Sep-18 17:58N 44°25' E 008°55'0 0.0
2020-Sep-18 15:00N 44°25' E 008°55'0 0.0
2020-Sep-18 13:29N 44°25' E 008°55'0 0.0
2020-Sep-18 10:26N 44°25' E 008°55'0 0.0
2020-Sep-18 07:29N 44°25' E 008°55'0 0.0
2020-Sep-18 06:59N 44°25' E 008°55'0 0.0
2020-Sep-18 04:59N 44°25' E 008°55'0 0.0
2020-Sep-18 02:59N 44°25' E 008°55'0 0.0
2020-Sep-18 01:26N 44°25' E 008°55'0 0.0
2020-Sep-18 00:59N 44°25' E 008°55'0 0.0
2020-Sep-17 19:30N 44°25' E 008°55'0 0.0
2020-Sep-17 17:00N 44°25' E 008°55'0 0.0
2020-Sep-17 15:30N 44°25' E 008°55'0 0.0
2020-Sep-17 14:30N 44°25' E 008°55'  

Dump ship's entire track history